Dillon, Montana
Current Conditions -  °F | °C
As of 10:53 PM on Friday 19 Dec 2014 (Local Time) from KDLN Reporting Station
Broken Clouds Broken Clouds  
Wind Chill: 21°   Ceiling: 7000
Heat Index: 30°   Visibility: 10mi
Dew Point: 23°   Wind: 10mph
Humidity: 75%   Direction: 200°SSW
Pressure: 29.96"   Gusts: NA
Location:  45.22°N, 112.64°W
Report Text: KDLN 200553Z AUTO 20009KT 10SM BKN070 M01/M05 A2996 RMK AO2 SLP166 T10111050 10017 21033 53004
Loading
Personal Weather Stations






























Interactive Weather Map New forecast layout! Learn more

10-Day Weather Forecast

Advertisements
Track Severe Weather on mobile